sensor_id;sensor_type;location;lat;lon;timestamp;P1;durP1;ratioP1;P2;durP2;ratioP2
78555;SDS011;67851;51.354;7.744;2023-04-01T00:00:46;5.28;;;1.23;;
78555;SDS011;67851;51.354;7.744;2023-04-01T00:03:12;3.30;;;1.10;;
78555;SDS011;67851;51.354;7.744;2023-04-01T00:05:38;4.30;;;1.17;;
78555;SDS011;67851;51.354;7.744;2023-04-01T00:08:04;5.97;;;1.38;;
78555;SDS011;67851;51.354;7.744;2023-04-01T00:10:29;3.78;;;1.20;;
78555;SDS011;67851;51.354;7.744;2023-04-01T00:12:55;8.63;;;1.38;;
78555;SDS011;67851;51.354;7.744;2023-04-01T00:15:21;2.47;;;0.95;;
78555;SDS011;67851;51.354;7.744;2023-04-01T00:17:46;5.85;;;1.70;;
78555;SDS011;67851;51.354;7.744;2023-04-01T00:20:12;4.43;;;1.10;;
78555;SDS011;67851;51.354;7.744;2023-04-01T00:22:39;4.43;;;1.00;;
78555;SDS011;67851;51.354;7.744;2023-04-01T00:25:06;1.85;;;0.77;;
78555;SDS011;67851;51.354;7.744;2023-04-01T00:27:32;3.92;;;1.13;;
78555;SDS011;67851;51.354;7.744;2023-04-01T00:29:58;6.55;;;1.13;;
78555;SDS011;67851;51.354;7.744;2023-04-01T00:32:23;2.95;;;0.77;;
78555;SDS011;67851;51.354;7.744;2023-04-01T00:34:50;2.90;;;0.85;;
78555;SDS011;67851;51.354;7.744;2023-04-01T00:37:17;3.70;;;0.90;;
78555;SDS011;67851;51.354;7.744;2023-04-01T00:39:43;3.50;;;0.90;;
78555;SDS011;67851;51.354;7.744;2023-04-01T00:42:09;2.85;;;0.77;;
78555;SDS011;67851;51.354;7.744;2023-04-01T00:44:36;4.15;;;1.33;;
78555;SDS011;67851;51.354;7.744;2023-04-01T00:47:02;3.88;;;0.90;;
78555;SDS011;67851;51.354;7.744;2023-04-01T00:49:32;4.72;;;1.05;;
78555;SDS011;67851;51.354;7.744;2023-04-01T00:54:26;4.20;;;0.80;;
78555;SDS011;67851;51.354;7.744;2023-04-01T00:56:55;2.65;;;0.85;;
78555;SDS011;67851;51.354;7.744;2023-04-01T00:59:24;3.67;;;1.05;;
78555;SDS011;67851;51.354;7.744;2023-04-01T01:01:52;1.45;;;0.82;;
78555;SDS011;67851;51.354;7.744;2023-04-01T01:04:27;6.93;;;1.00;;
78555;SDS011;67851;51.354;7.744;2023-04-01T01:15:32;6.55;;;1.02;;
78555;SDS011;67851;51.354;7.744;2023-04-01T01:27:01;2.67;;;1.05;;
78555;SDS011;67851;51.354;7.744;2023-04-01T01:32:16;3.65;;;1.10;;
78555;SDS011;67851;51.354;7.744;2023-04-01T01:34:48;5.72;;;1.27;;
78555;SDS011;67851;51.354;7.744;2023-04-01T01:37:20;2.83;;;1.13;;
78555;SDS011;67851;51.354;7.744;2023-04-01T01:39:49;2.90;;;0.47;;
78555;SDS011;67851;51.354;7.744;2023-04-01T01:42:18;3.35;;;0.80;;
78555;SDS011;67851;51.354;7.744;2023-04-01T01:44:45;2.30;;;0.75;;
78555;SDS011;67851;51.354;7.744;2023-04-01T01:47:12;1.52;;;0.60;;
78555;SDS011;67851;51.354;7.744;2023-04-01T01:49:39;1.17;;;0.65;;
78555;SDS011;67851;51.354;7.744;2023-04-01T01:52:06;2.67;;;0.90;;
78555;SDS011;67851;51.354;7.744;2023-04-01T01:54:31;2.95;;;0.98;;
78555;SDS011;67851;51.354;7.744;2023-04-01T01:57:07;1.20;;;0.70;;
78555;SDS011;67851;51.354;7.744;2023-04-01T01:59:37;1.17;;;0.50;;
78555;SDS011;67851;51.354;7.744;2023-04-01T02:02:03;1.60;;;0.75;;
78555;SDS011;67851;51.354;7.744;2023-04-01T02:04:37;1.58;;;0.80;;
78555;SDS011;67851;51.354;7.744;2023-04-01T02:07:07;2.20;;;0.93;;
78555;SDS011;67851;51.354;7.744;2023-04-01T02:09:37;1.55;;;0.77;;
78555;SDS011;67851;51.354;7.744;2023-04-01T02:12:04;3.47;;;1.25;;
78555;SDS011;67851;51.354;7.744;2023-04-01T02:14:41;2.00;;;0.93;;
78555;SDS011;67851;51.354;7.744;2023-04-01T02:17:11;4.20;;;1.00;;
78555;SDS011;67851;51.354;7.744;2023-04-01T02:19:41;3.28;;;0.90;;
78555;SDS011;67851;51.354;7.744;2023-04-01T02:22:13;0.82;;;0.55;;
78555;SDS011;67851;51.354;7.744;2023-04-01T02:24:41;1.45;;;0.77;;
78555;SDS011;67851;51.354;7.744;2023-04-01T02:27:08;2.83;;;0.80;;
78555;SDS011;67851;51.354;7.744;2023-04-01T02:29:35;1.20;;;0.82;;
78555;SDS011;67851;51.354;7.744;2023-04-01T02:32:01;1.20;;;0.60;;
78555;SDS011;67851;51.354;7.744;2023-04-01T02:34:27;2.83;;;0.98;;
78555;SDS011;67851;51.354;7.744;2023-04-01T02:36:53;1.50;;;0.70;;
78555;SDS011;67851;51.354;7.744;2023-04-01T02:39:20;1.67;;;0.70;;
78555;SDS011;67851;51.354;7.744;2023-04-01T02:41:46;2.25;;;0.68;;
78555;SDS011;67851;51.354;7.744;2023-04-01T02:44:13;2.17;;;0.70;;
78555;SDS011;67851;51.354;7.744;2023-04-01T02:46:40;1.95;;;0.90;;
78555;SDS011;67851;51.354;7.744;2023-04-01T02:49:06;1.20;;;0.90;;
78555;SDS011;67851;51.354;7.744;2023-04-01T02:51:32;6.90;;;0.82;;
78555;SDS011;67851;51.354;7.744;2023-04-01T02:53:58;3.40;;;1.05;;
78555;SDS011;67851;51.354;7.744;2023-04-01T02:56:23;3.40;;;0.88;;
78555;SDS011;67851;51.354;7.744;2023-04-01T02:58:49;2.15;;;0.88;;
78555;SDS011;67851;51.354;7.744;2023-04-01T03:01:15;3.10;;;0.90;;
78555;SDS011;67851;51.354;7.744;2023-04-01T03:03:41;2.25;;;1.20;;
78555;SDS011;67851;51.354;7.744;2023-04-01T03:06:07;2.30;;;0.80;;
78555;SDS011;67851;51.354;7.744;2023-04-01T03:08:33;8.55;;;0.90;;
78555;SDS011;67851;51.354;7.744;2023-04-01T03:10:59;1.95;;;0.90;;
78555;SDS011;67851;51.354;7.744;2023-04-01T03:13:25;1.85;;;0.70;;
78555;SDS011;67851;51.354;7.744;2023-04-01T03:15:51;3.47;;;0.70;;
78555;SDS011;67851;51.354;7.744;2023-04-01T03:18:17;2.08;;;0.60;;
78555;SDS011;67851;51.354;7.744;2023-04-01T03:20:42;1.83;;;0.80;;
78555;SDS011;67851;51.354;7.744;2023-04-01T03:23:09;2.53;;;0.40;;
78555;SDS011;67851;51.354;7.744;2023-04-01T03:25:35;2.58;;;0.60;;
78555;SDS011;67851;51.354;7.744;2023-04-01T03:28:00;0.82;;;0.50;;
78555;SDS011;67851;51.354;7.744;2023-04-01T03:30:26;1.77;;;0.60;;
78555;SDS011;67851;51.354;7.744;2023-04-01T03:32:52;1.75;;;0.50;;
78555;SDS011;67851;51.354;7.744;2023-04-01T03:35:18;2.58;;;0.60;;
78555;SDS011;67851;51.354;7.744;2023-04-01T03:37:44;4.38;;;0.95;;
78555;SDS011;67851;51.354;7.744;2023-04-01T03:40:10;1.42;;;0.77;;
78555;SDS011;67851;51.354;7.744;2023-04-01T03:42:36;3.17;;;0.70;;
78555;SDS011;67851;51.354;7.744;2023-04-01T03:45:02;0.80;;;0.60;;
78555;SDS011;67851;51.354;7.744;2023-04-01T03:47:29;0.30;;;0.30;;
78555;SDS011;67851;51.354;7.744;2023-04-01T03:49:55;0.80;;;0.45;;
78555;SDS011;67851;51.354;7.744;2023-04-01T03:52:21;1.08;;;0.47;;
78555;SDS011;67851;51.354;7.744;2023-04-01T03:54:47;1.65;;;0.70;;
78555;SDS011;67851;51.354;7.744;2023-04-01T03:57:13;1.17;;;0.85;;
78555;SDS011;67851;51.354;7.744;2023-04-01T03:59:39;1.42;;;0.60;;
78555;SDS011;67851;51.354;7.744;2023-04-01T04:02:04;0.93;;;0.40;;
78555;SDS011;67851;51.354;7.744;2023-04-01T04:04:31;0.40;;;0.40;;
78555;SDS011;67851;51.354;7.744;2023-04-01T04:06:57;1.33;;;0.50;;
78555;SDS011;67851;51.354;7.744;2023-04-01T04:09:24;3.38;;;0.50;;
78555;SDS011;67851;51.354;7.744;2023-04-01T04:11:50;0.30;;;0.30;;
78555;SDS011;67851;51.354;7.744;2023-04-01T04:14:16;2.15;;;0.60;;
78555;SDS011;67851;51.354;7.744;2023-04-01T04:16:42;0.55;;;0.40;;
78555;SDS011;67851;51.354;7.744;2023-04-01T04:19:09;0.40;;;0.40;;
78555;SDS011;67851;51.354;7.744;2023-04-01T04:21:35;2.95;;;0.50;;
78555;SDS011;67851;51.354;7.744;2023-04-01T04:24:01;0.47;;;0.40;;
78555;SDS011;67851;51.354;7.744;2023-04-01T04:26:37;0.85;;;0.40;;
78555;SDS011;67851;51.354;7.744;2023-04-01T04:29:02;1.70;;;0.70;;
78555;SDS011;67851;51.354;7.744;2023-04-01T04:31:29;0.75;;;0.40;;
78555;SDS011;67851;51.354;7.744;2023-04-01T04:33:59;0.50;;;0.50;;
78555;SDS011;67851;51.354;7.744;2023-04-01T04:36:26;1.42;;;0.50;;
78555;SDS011;67851;51.354;7.744;2023-04-01T04:38:52;0.55;;;0.50;;
78555;SDS011;67851;51.354;7.744;2023-04-01T04:41:19;1.02;;;0.57;;
78555;SDS011;67851;51.354;7.744;2023-04-01T04:43:52;1.75;;;0.70;;
78555;SDS011;67851;51.354;7.744;2023-04-01T04:46:21;0.55;;;0.40;;
78555;SDS011;67851;51.354;7.744;2023-04-01T04:48:51;1.45;;;0.80;;
78555;SDS011;67851;51.354;7.744;2023-04-01T04:51:18;1.23;;;0.75;;
78555;SDS011;67851;51.354;7.744;2023-04-01T04:53:45;1.20;;;0.70;;
78555;SDS011;67851;51.354;7.744;2023-04-01T04:56:11;1.75;;;0.80;;
78555;SDS011;67851;51.354;7.744;2023-04-01T04:58:48;2.75;;;0.90;;
78555;SDS011;67851;51.354;7.744;2023-04-01T05:01:19;1.10;;;0.90;;
78555;SDS011;67851;51.354;7.744;2023-04-01T05:03:45;1.67;;;1.02;;
78555;SDS011;67851;51.354;7.744;2023-04-01T05:06:12;1.63;;;0.85;;
78555;SDS011;67851;51.354;7.744;2023-04-01T05:08:39;1.58;;;0.75;;
78555;SDS011;67851;51.354;7.744;2023-04-01T05:11:07;1.83;;;0.85;;
78555;SDS011;67851;51.354;7.744;2023-04-01T05:13:35;1.88;;;0.80;;
78555;SDS011;67851;51.354;7.744;2023-04-01T05:16:01;0.80;;;0.80;;
78555;SDS011;67851;51.354;7.744;2023-04-01T05:18:27;0.60;;;0.60;;
78555;SDS011;67851;51.354;7.744;2023-04-01T05:20:53;0.57;;;0.57;;
78555;SDS011;67851;51.354;7.744;2023-04-01T05:23:19;1.48;;;0.80;;
78555;SDS011;67851;51.354;7.744;2023-04-01T05:25:47;1.10;;;0.60;;
78555;SDS011;67851;51.354;7.744;2023-04-01T05:28:15;0.95;;;0.65;;
78555;SDS011;67851;51.354;7.744;2023-04-01T05:30:43;1.55;;;0.65;;
78555;SDS011;67851;51.354;7.744;2023-04-01T05:33:20;2.22;;;0.60;;
78555;SDS011;67851;51.354;7.744;2023-04-01T05:35:45;0.65;;;0.43;;
78555;SDS011;67851;51.354;7.744;2023-04-01T05:38:11;1.55;;;0.70;;
78555;SDS011;67851;51.354;7.744;2023-04-01T05:40:37;0.65;;;0.60;;
78555;SDS011;67851;51.354;7.744;2023-04-01T05:43:03;0.40;;;0.40;;
78555;SDS011;67851;51.354;7.744;2023-04-01T05:45:30;1.65;;;0.75;;
78555;SDS011;67851;51.354;7.744;2023-04-01T05:48:10;0.60;;;0.50;;
78555;SDS011;67851;51.354;7.744;2023-04-01T05:50:39;0.75;;;0.60;;
78555;SDS011;67851;51.354;7.744;2023-04-01T05:53:06;1.00;;;0.80;;
78555;SDS011;67851;51.354;7.744;2023-04-01T05:55:31;0.93;;;0.70;;
78555;SDS011;67851;51.354;7.744;2023-04-01T05:57:57;1.13;;;0.85;;
78555;SDS011;67851;51.354;7.744;2023-04-01T06:00:22;0.70;;;0.70;;
78555;SDS011;67851;51.354;7.744;2023-04-01T06:02:49;0.90;;;0.80;;
78555;SDS011;67851;51.354;7.744;2023-04-01T06:05:19;0.88;;;0.70;;
78555;SDS011;67851;51.354;7.744;2023-04-01T06:07:46;0.65;;;0.60;;
78555;SDS011;67851;51.354;7.744;2023-04-01T06:10:14;0.73;;;0.73;;
78555;SDS011;67851;51.354;7.744;2023-04-01T06:16:01;0.82;;;0.60;;
78555;SDS011;67851;51.354;7.744;2023-04-01T06:18:39;0.88;;;0.70;;
78555;SDS011;67851;51.354;7.744;2023-04-01T06:46:19;1.27;;;0.50;;
78555;SDS011;67851;51.354;7.744;2023-04-01T06:52:22;0.70;;;0.70;;
78555;SDS011;67851;51.354;7.744;2023-04-01T06:55:49;4.53;;;0.80;;
78555;SDS011;67851;51.354;7.744;2023-04-01T06:59:15;0.70;;;0.70;;
78555;SDS011;67851;51.354;7.744;2023-04-01T07:01:18;1.05;;;0.80;;
78555;SDS011;67851;51.354;7.744;2023-04-01T07:03:49;0.70;;;0.60;;
78555;SDS011;67851;51.354;7.744;2023-04-01T07:06:42;1.45;;;0.70;;
78555;SDS011;67851;51.354;7.744;2023-04-01T07:09:09;1.30;;;0.63;;
78555;SDS011;67851;51.354;7.744;2023-04-01T07:11:59;1.08;;;0.70;;
78555;SDS011;67851;51.354;7.744;2023-04-01T07:14:50;0.70;;;0.70;;
78555;SDS011;67851;51.354;7.744;2023-04-01T07:22:28;0.80;;;0.77;;
78555;SDS011;67851;51.354;7.744;2023-04-01T07:25:07;1.40;;;0.75;;
78555;SDS011;67851;51.354;7.744;2023-04-01T07:27:38;0.82;;;0.82;;
78555;SDS011;67851;51.354;7.744;2023-04-01T07:30:12;1.13;;;1.02;;
78555;SDS011;67851;51.354;7.744;2023-04-01T07:32:44;1.58;;;1.15;;
78555;SDS011;67851;51.354;7.744;2023-04-01T07:35:17;1.53;;;1.00;;
78555;SDS011;67851;51.354;7.744;2023-04-01T07:43:52;3.37;;;1.20;;
78555;SDS011;67851;51.354;7.744;2023-04-01T07:47:03;1.05;;;0.95;;
78555;SDS011;67851;51.354;7.744;2023-04-01T07:49:26;0.88;;;0.88;;
78555;SDS011;67851;51.354;7.744;2023-04-01T07:57:48;0.98;;;0.90;;
78555;SDS011;67851;51.354;7.744;2023-04-01T08:18:59;0.80;;;0.60;;
78555;SDS011;67851;51.354;7.744;2023-04-01T08:21:52;1.08;;;0.70;;
78555;SDS011;67851;51.354;7.744;2023-04-01T08:29:57;0.63;;;0.63;;
78555;SDS011;67851;51.354;7.744;2023-04-01T08:32:28;0.70;;;0.60;;
78555;SDS011;67851;51.354;7.744;2023-04-01T08:35:01;0.55;;;0.52;;
78555;SDS011;67851;51.354;7.744;2023-04-01T08:37:38;0.50;;;0.50;;
78555;SDS011;67851;51.354;7.744;2023-04-01T08:40:28;0.68;;;0.50;;
78555;SDS011;67851;51.354;7.744;2023-04-01T08:46:06;1.25;;;0.68;;
78555;SDS011;67851;51.354;7.744;2023-04-01T09:40:26;3.00;;;1.10;;
78555;SDS011;67851;51.354;7.744;2023-04-01T09:43:27;3.05;;;0.93;;
78555;SDS011;67851;51.354;7.744;2023-04-01T09:46:18;0.70;;;0.70;;
78555;SDS011;67851;51.354;7.744;2023-04-01T09:49:07;4.57;;;0.70;;
78555;SDS011;67851;51.354;7.744;2023-04-01T09:51:56;1.17;;;0.80;;
78555;SDS011;67851;51.354;7.744;2023-04-01T10:11:31;1.30;;;0.77;;
78555;SDS011;67851;51.354;7.744;2023-04-01T10:14:33;0.93;;;0.60;;
78555;SDS011;67851;51.354;7.744;2023-04-01T10:20:28;1.25;;;0.80;;
78555;SDS011;67851;51.354;7.744;2023-04-01T10:36:47;1.15;;;1.05;;
78555;SDS011;67851;51.354;7.744;2023-04-01T10:54:09;2.03;;;1.80;;
78555;SDS011;67851;51.354;7.744;2023-04-01T11:00:52;3.85;;;3.28;;
78555;SDS011;67851;51.354;7.744;2023-04-01T11:11:24;5.07;;;3.50;;
78555;SDS011;67851;51.354;7.744;2023-04-01T11:27:24;2.35;;;2.15;;
78555;SDS011;67851;51.354;7.744;2023-04-01T11:32:46;2.10;;;1.90;;
78555;SDS011;67851;51.354;7.744;2023-04-01T11:44:06;1.60;;;1.30;;
78555;SDS011;67851;51.354;7.744;2023-04-01T12:00:30;0.73;;;0.73;;
78555;SDS011;67851;51.354;7.744;2023-04-01T12:05:43;1.10;;;0.93;;
78555;SDS011;67851;51.354;7.744;2023-04-01T12:11:24;5.68;;;3.90;;
78555;SDS011;67851;51.354;7.744;2023-04-01T12:14:30;1.63;;;1.08;;
78555;SDS011;67851;51.354;7.744;2023-04-01T12:17:05;1.30;;;0.98;;
78555;SDS011;67851;51.354;7.744;2023-04-01T12:22:23;1.42;;;1.33;;
78555;SDS011;67851;51.354;7.744;2023-04-01T12:25:07;1.38;;;1.20;;
78555;SDS011;67851;51.354;7.744;2023-04-01T12:41:57;1.38;;;0.98;;
78555;SDS011;67851;51.354;7.744;2023-04-01T12:44:42;0.70;;;0.70;;
78555;SDS011;67851;51.354;7.744;2023-04-01T12:50:16;4.28;;;1.10;;
78555;SDS011;67851;51.354;7.744;2023-04-01T12:55:35;3.25;;;1.20;;
78555;SDS011;67851;51.354;7.744;2023-04-01T13:01:21;1.60;;;1.23;;
78555;SDS011;67851;51.354;7.744;2023-04-01T13:09:47;2.90;;;1.20;;
78555;SDS011;67851;51.354;7.744;2023-04-01T13:14:57;1.20;;;1.10;;
78555;SDS011;67851;51.354;7.744;2023-04-01T13:22:41;1.35;;;1.10;;
78555;SDS011;67851;51.354;7.744;2023-04-01T13:39:52;1.30;;;1.20;;
78555;SDS011;67851;51.354;7.744;2023-04-01T13:42:38;1.30;;;1.15;;
78555;SDS011;67851;51.354;7.744;2023-04-01T13:45:14;1.90;;;1.60;;
78555;SDS011;67851;51.354;7.744;2023-04-01T13:53:14;1.98;;;1.50;;
78555;SDS011;67851;51.354;7.744;2023-04-01T14:20:07;3.28;;;2.63;;
78555;SDS011;67851;51.354;7.744;2023-04-01T14:47:53;4.03;;;2.50;;
78555;SDS011;67851;51.354;7.744;2023-04-01T14:50:29;10.15;;;6.70;;
78555;SDS011;67851;51.354;7.744;2023-04-01T14:55:56;1.92;;;1.75;;
78555;SDS011;67851;51.354;7.744;2023-04-01T14:58:24;10.63;;;8.75;;
78555;SDS011;67851;51.354;7.744;2023-04-01T15:03:22;2.53;;;2.10;;
78555;SDS011;67851;51.354;7.744;2023-04-01T15:06:25;2.47;;;2.17;;
78555;SDS011;67851;51.354;7.744;2023-04-01T15:09:09;24.15;;;21.27;;
78555;SDS011;67851;51.354;7.744;2023-04-01T15:12:00;3.00;;;2.50;;
78555;SDS011;67851;51.354;7.744;2023-04-01T15:23:31;3.78;;;1.70;;
78555;SDS011;67851;51.354;7.744;2023-04-01T15:31:21;1.80;;;1.70;;
78555;SDS011;67851;51.354;7.744;2023-04-01T15:39:09;2.78;;;2.08;;
78555;SDS011;67851;51.354;7.744;2023-04-01T15:46:55;1.90;;;1.70;;
78555;SDS011;67851;51.354;7.744;2023-04-01T15:49:34;1.45;;;1.35;;
78555;SDS011;67851;51.354;7.744;2023-04-01T15:57:40;3.60;;;2.25;;
78555;SDS011;67851;51.354;7.744;2023-04-01T16:24:53;2.90;;;2.60;;
78555;SDS011;67851;51.354;7.744;2023-04-01T16:27:45;4.22;;;3.17;;
78555;SDS011;67851;51.354;7.744;2023-04-01T16:38:46;4.57;;;3.42;;
78555;SDS011;67851;51.354;7.744;2023-04-01T16:43:51;4.45;;;4.05;;
78555;SDS011;67851;51.354;7.744;2023-04-01T16:46:56;3.80;;;3.40;;
78555;SDS011;67851;51.354;7.744;2023-04-01T16:49:36;3.42;;;3.13;;
78555;SDS011;67851;51.354;7.744;2023-04-01T16:57:43;6.32;;;4.03;;
78555;SDS011;67851;51.354;7.744;2023-04-01T17:00:25;3.88;;;3.47;;
78555;SDS011;67851;51.354;7.744;2023-04-01T17:02:59;4.32;;;3.25;;
78555;SDS011;67851;51.354;7.744;2023-04-01T17:16:27;4.43;;;3.75;;
78555;SDS011;67851;51.354;7.744;2023-04-01T17:18:58;3.78;;;3.08;;
78555;SDS011;67851;51.354;7.744;2023-04-01T17:24:22;3.05;;;2.60;;
78555;SDS011;67851;51.354;7.744;2023-04-01T17:26:52;3.67;;;2.90;;
78555;SDS011;67851;51.354;7.744;2023-04-01T17:29:28;3.50;;;2.90;;
78555;SDS011;67851;51.354;7.744;2023-04-01T17:32:21;3.45;;;3.15;;
78555;SDS011;67851;51.354;7.744;2023-04-01T17:37:39;152.15;;;92.07;;
78555;SDS011;67851;51.354;7.744;2023-04-01T17:43:14;14.48;;;11.35;;
78555;SDS011;67851;51.354;7.744;2023-04-01T17:54:15;4.38;;;3.63;;
78555;SDS011;67851;51.354;7.744;2023-04-01T18:00:12;4.88;;;4.13;;
78555;SDS011;67851;51.354;7.744;2023-04-01T18:08:14;9.32;;;5.68;;
78555;SDS011;67851;51.354;7.744;2023-04-01T18:13:34;7.65;;;5.38;;
78555;SDS011;67851;51.354;7.744;2023-04-01T18:18:53;4.18;;;3.78;;
78555;SDS011;67851;51.354;7.744;2023-04-01T18:24:21;6.38;;;3.70;;
78555;SDS011;67851;51.354;7.744;2023-04-01T18:26:50;13.15;;;7.80;;
78555;SDS011;67851;51.354;7.744;2023-04-01T18:29:28;6.35;;;5.03;;
78555;SDS011;67851;51.354;7.744;2023-04-01T18:32:12;5.72;;;4.57;;
78555;SDS011;67851;51.354;7.744;2023-04-01T18:34:50;6.47;;;4.57;;
78555;SDS011;67851;51.354;7.744;2023-04-01T18:40:10;6.38;;;4.57;;
78555;SDS011;67851;51.354;7.744;2023-04-01T18:45:58;7.38;;;5.00;;
78555;SDS011;67851;51.354;7.744;2023-04-01T18:53:59;8.32;;;5.90;;
78555;SDS011;67851;51.354;7.744;2023-04-01T18:59:02;9.43;;;6.22;;
78555;SDS011;67851;51.354;7.744;2023-04-01T19:05:04;8.88;;;6.25;;
78555;SDS011;67851;51.354;7.744;2023-04-01T19:07:43;10.00;;;6.32;;
78555;SDS011;67851;51.354;7.744;2023-04-01T19:10:18;8.90;;;6.57;;
78555;SDS011;67851;51.354;7.744;2023-04-01T19:18:39;11.73;;;7.95;;
78555;SDS011;67851;51.354;7.744;2023-04-01T19:21:27;15.05;;;9.68;;
78555;SDS011;67851;51.354;7.744;2023-04-01T19:26:28;11.60;;;8.27;;
78555;SDS011;67851;51.354;7.744;2023-04-01T19:29:12;15.90;;;9.90;;
78555;SDS011;67851;51.354;7.744;2023-04-01T19:34:22;17.83;;;10.63;;
78555;SDS011;67851;51.354;7.744;2023-04-01T19:39:37;21.52;;;11.63;;
78555;SDS011;67851;51.354;7.744;2023-04-01T19:45:11;20.13;;;12.52;;
78555;SDS011;67851;51.354;7.744;2023-04-01T19:47:56;18.42;;;11.43;;
78555;SDS011;67851;51.354;7.744;2023-04-01T19:53:51;21.05;;;12.20;;
78555;SDS011;67851;51.354;7.744;2023-04-01T19:56:02;21.17;;;11.68;;
78555;SDS011;67851;51.354;7.744;2023-04-01T20:01:48;15.13;;;9.68;;
78555;SDS011;67851;51.354;7.744;2023-04-01T20:12:19;24.98;;;12.98;;
78555;SDS011;67851;51.354;7.744;2023-04-01T20:14:54;19.42;;;10.57;;
78555;SDS011;67851;51.354;7.744;2023-04-01T20:25:17;25.42;;;13.55;;
78555;SDS011;67851;51.354;7.744;2023-04-01T20:52:02;48.75;;;15.05;;
78555;SDS011;67851;51.354;7.744;2023-04-01T20:54:55;29.73;;;12.70;;
78555;SDS011;67851;51.354;7.744;2023-04-01T20:57:40;37.92;;;13.93;;
78555;SDS011;67851;51.354;7.744;2023-04-01T21:03:11;85.90;;;15.70;;
78555;SDS011;67851;51.354;7.744;2023-04-01T21:11:37;29.10;;;11.63;;
78555;SDS011;67851;51.354;7.744;2023-04-01T21:33:58;46.72;;;12.88;;
78555;SDS011;67851;51.354;7.744;2023-04-01T21:39:44;51.92;;;13.88;;
78555;SDS011;67851;51.354;7.744;2023-04-01T22:04:33;51.97;;;15.05;;
78555;SDS011;67851;51.354;7.744;2023-04-01T22:12:24;67.57;;;17.58;;
78555;SDS011;67851;51.354;7.744;2023-04-01T22:15:10;56.28;;;15.90;;
78555;SDS011;67851;51.354;7.744;2023-04-01T22:21:09;50.67;;;17.55;;
78555;SDS011;67851;51.354;7.744;2023-04-01T22:29:22;21.23;;;7.32;;
78555;SDS011;67851;51.354;7.744;2023-04-01T22:31:58;30.95;;;8.18;;
78555;SDS011;67851;51.354;7.744;2023-04-01T22:42:43;28.45;;;9.20;;
78555;SDS011;67851;51.354;7.744;2023-04-01T22:47:59;50.88;;;13.85;;
78555;SDS011;67851;51.354;7.744;2023-04-01T22:50:32;124.82;;;16.88;;
78555;SDS011;67851;51.354;7.744;2023-04-01T22:55:38;107.80;;;18.58;;
78555;SDS011;67851;51.354;7.744;2023-04-01T22:58:07;204.57;;;22.05;;
78555;SDS011;67851;51.354;7.744;2023-04-01T23:00:36;80.65;;;18.58;;
78555;SDS011;67851;51.354;7.744;2023-04-01T23:05:39;42.55;;;14.77;;
78555;SDS011;67851;51.354;7.744;2023-04-01T23:10:52;45.13;;;13.82;;
78555;SDS011;67851;51.354;7.744;2023-04-01T23:13:22;37.17;;;12.32;;
78555;SDS011;67851;51.354;7.744;2023-04-01T23:18:25;40.95;;;12.27;;
78555;SDS011;67851;51.354;7.744;2023-04-01T23:21:13;39.38;;;13.32;;
78555;SDS011;67851;51.354;7.744;2023-04-01T23:24:01;43.05;;;14.48;;
78555;SDS011;67851;51.354;7.744;2023-04-01T23:26:47;29.15;;;10.82;;
78555;SDS011;67851;51.354;7.744;2023-04-01T23:29:21;43.83;;;13.50;;
78555;SDS011;67851;51.354;7.744;2023-04-01T23:31:48;37.85;;;13.50;;
78555;SDS011;67851;51.354;7.744;2023-04-01T23:34:31;41.05;;;13.20;;
78555;SDS011;67851;51.354;7.744;2023-04-01T23:37:04;46.60;;;13.50;;
78555;SDS011;67851;51.354;7.744;2023-04-01T23:39:37;40.00;;;13.77;;
78555;SDS011;67851;51.354;7.744;2023-04-01T23:44:49;65.60;;;15.85;;
78555;SDS011;67851;51.354;7.744;2023-04-01T23:47:17;47.88;;;14.75;;
78555;SDS011;67851;51.354;7.744;2023-04-01T23:49:50;83.40;;;20.40;;
78555;SDS011;67851;51.354;7.744;2023-04-01T23:52:21;72.25;;;18.45;;
78555;SDS011;67851;51.354;7.744;2023-04-01T23:57:21;69.70;;;20.27;;
